sensor_id;sensor_type;location;lat;lon;timestamp;pressure;altitude;pressure_sealevel;temperature;humidity
15568;BME280;7885;42.596;23.044;2023-02-15T00:01:24;94092.56;;;3.80;78.12
15568;BME280;7885;42.596;23.044;2023-02-15T00:03:51;94078.50;;;3.74;77.77
15568;BME280;7885;42.596;23.044;2023-02-15T00:06:19;94095.72;;;3.82;77.55
15568;BME280;7885;42.596;23.044;2023-02-15T00:08:46;94084.66;;;3.75;77.35
15568;BME280;7885;42.596;23.044;2023-02-15T00:11:14;94088.25;;;3.87;77.27
15568;BME280;7885;42.596;23.044;2023-02-15T00:13:42;94078.00;;;3.81;77.19
15568;BME280;7885;42.596;23.044;2023-02-15T00:16:10;94081.78;;;3.80;77.28
15568;BME280;7885;42.596;23.044;2023-02-15T00:18:38;94088.50;;;3.65;77.68
15568;BME280;7885;42.596;23.044;2023-02-15T00:21:06;94091.97;;;3.66;77.98
15568;BME280;7885;42.596;23.044;2023-02-15T00:23:35;94108.91;;;3.75;77.86
15568;BME280;7885;42.596;23.044;2023-02-15T00:26:04;94104.31;;;3.67;78.04
15568;BME280;7885;42.596;23.044;2023-02-15T00:28:31;94097.06;;;3.58;78.43
15568;BME280;7885;42.596;23.044;2023-02-15T00:31:03;94103.69;;;3.70;77.88
15568;BME280;7885;42.596;23.044;2023-02-15T00:33:29;94104.16;;;3.72;78.27
15568;BME280;7885;42.596;23.044;2023-02-15T00:35:57;94089.13;;;3.62;78.14
15568;BME280;7885;42.596;23.044;2023-02-15T00:38:24;94089.13;;;3.71;77.33
15568;BME280;7885;42.596;23.044;2023-02-15T00:40:53;94087.66;;;3.73;77.68
15568;BME280;7885;42.596;23.044;2023-02-15T00:43:20;94092.09;;;3.78;76.93
15568;BME280;7885;42.596;23.044;2023-02-15T00:45:47;94108.34;;;3.90;76.72
15568;BME280;7885;42.596;23.044;2023-02-15T00:48:14;94096.81;;;3.89;76.98
15568;BME280;7885;42.596;23.044;2023-02-15T00:50:40;94106.13;;;3.92;77.38
15568;BME280;7885;42.596;23.044;2023-02-15T00:53:07;94105.34;;;3.91;76.96
15568;BME280;7885;42.596;23.044;2023-02-15T00:55:34;94091.28;;;3.86;76.96
15568;BME280;7885;42.596;23.044;2023-02-15T00:58:02;94098.38;;;3.90;76.88
15568;BME280;7885;42.596;23.044;2023-02-15T01:00:28;94096.47;;;3.91;76.96
15568;BME280;7885;42.596;23.044;2023-02-15T01:02:55;94097.25;;;3.91;76.89
15568;BME280;7885;42.596;23.044;2023-02-15T01:05:22;94099.22;;;3.82;76.98
15568;BME280;7885;42.596;23.044;2023-02-15T01:07:48;94074.88;;;3.70;77.30
15568;BME280;7885;42.596;23.044;2023-02-15T01:10:15;94094.44;;;3.88;77.06
15568;BME280;7885;42.596;23.044;2023-02-15T01:12:42;94066.28;;;3.77;76.86
15568;BME280;7885;42.596;23.044;2023-02-15T01:15:10;94086.31;;;3.96;76.80
15568;BME280;7885;42.596;23.044;2023-02-15T01:17:37;94083.94;;;3.95;76.67
15568;BME280;7885;42.596;23.044;2023-02-15T01:20:05;94052.97;;;3.80;76.85
15568;BME280;7885;42.596;23.044;2023-02-15T01:22:32;94081.41;;;3.90;77.20
15568;BME280;7885;42.596;23.044;2023-02-15T01:24:58;94079.38;;;3.87;76.83
15568;BME280;7885;42.596;23.044;2023-02-15T01:27:25;94083.50;;;3.93;76.77
15568;BME280;7885;42.596;23.044;2023-02-15T01:29:52;94075.41;;;3.93;76.57
15568;BME280;7885;42.596;23.044;2023-02-15T01:32:20;94075.22;;;3.98;76.57
15568;BME280;7885;42.596;23.044;2023-02-15T01:34:46;94064.50;;;3.89;76.61
15568;BME280;7885;42.596;23.044;2023-02-15T01:37:13;94079.06;;;3.88;77.10
15568;BME280;7885;42.596;23.044;2023-02-15T01:39:40;94076.38;;;3.88;77.20
15568;BME280;7885;42.596;23.044;2023-02-15T01:42:09;94068.44;;;3.92;77.09
15568;BME280;7885;42.596;23.044;2023-02-15T01:44:49;94069.09;;;3.89;77.30
15568;BME280;7885;42.596;23.044;2023-02-15T01:47:17;94066.06;;;3.90;77.26
15568;BME280;7885;42.596;23.044;2023-02-15T01:49:47;94058.81;;;3.82;77.08
15568;BME280;7885;42.596;23.044;2023-02-15T01:52:16;94068.31;;;3.80;77.54
15568;BME280;7885;42.596;23.044;2023-02-15T01:54:45;94036.94;;;3.54;77.47
15568;BME280;7885;42.596;23.044;2023-02-15T01:57:16;94064.06;;;3.79;78.17
15568;BME280;7885;42.596;23.044;2023-02-15T01:59:48;94034.19;;;3.63;77.60
15568;BME280;7885;42.596;23.044;2023-02-15T02:02:18;94056.94;;;3.74;78.06
15568;BME280;7885;42.596;23.044;2023-02-15T02:04:52;94067.22;;;3.81;77.85
15568;BME280;7885;42.596;23.044;2023-02-15T02:07:23;94066.94;;;3.74;78.27
15568;BME280;7885;42.596;23.044;2023-02-15T02:09:50;94070.56;;;3.78;78.17
15568;BME280;7885;42.596;23.044;2023-02-15T02:12:18;94069.16;;;3.72;78.51
15568;BME280;7885;42.596;23.044;2023-02-15T02:14:48;94052.25;;;3.63;78.63
15568;BME280;7885;42.596;23.044;2023-02-15T02:17:17;94070.22;;;3.79;78.77
15568;BME280;7885;42.596;23.044;2023-02-15T02:20:10;94049.97;;;3.73;78.50
15568;BME280;7885;42.596;23.044;2023-02-15T02:26:37;94065.25;;;3.90;78.34
15568;BME280;7885;42.596;23.044;2023-02-15T02:29:19;94064.16;;;3.91;77.81
15568;BME280;7885;42.596;23.044;2023-02-15T02:32:10;94069.41;;;3.87;78.48
15568;BME280;7885;42.596;23.044;2023-02-15T02:34:44;94072.44;;;3.86;78.21
15568;BME280;7885;42.596;23.044;2023-02-15T02:37:19;94075.13;;;3.86;78.73
15568;BME280;7885;42.596;23.044;2023-02-15T02:39:54;94056.94;;;3.74;78.92
15568;BME280;7885;42.596;23.044;2023-02-15T02:42:25;94081.28;;;3.86;78.89
15568;BME280;7885;42.596;23.044;2023-02-15T02:45:00;94042.91;;;3.69;78.80
15568;BME280;7885;42.596;23.044;2023-02-15T02:47:32;94065.91;;;3.87;78.56
15568;BME280;7885;42.596;23.044;2023-02-15T02:50:04;94071.44;;;3.90;78.23
15568;BME280;7885;42.596;23.044;2023-02-15T02:52:40;94090.28;;;3.99;78.09
15568;BME280;7885;42.596;23.044;2023-02-15T02:55:11;94077.75;;;3.94;78.47
15568;BME280;7885;42.596;23.044;2023-02-15T02:57:43;94080.81;;;3.93;78.66
15568;BME280;7885;42.596;23.044;2023-02-15T03:00:14;94076.97;;;3.94;78.43
15568;BME280;7885;42.596;23.044;2023-02-15T03:02:43;94063.56;;;3.85;78.74
15568;BME280;7885;42.596;23.044;2023-02-15T03:05:15;94075.41;;;3.93;78.18
15568;BME280;7885;42.596;23.044;2023-02-15T03:07:46;94083.63;;;3.96;77.95
15568;BME280;7885;42.596;23.044;2023-02-15T03:10:18;94071.63;;;3.85;78.24
15568;BME280;7885;42.596;23.044;2023-02-15T03:12:45;94081.69;;;3.97;78.30
15568;BME280;7885;42.596;23.044;2023-02-15T03:15:15;94084.75;;;3.95;78.25
15568;BME280;7885;42.596;23.044;2023-02-15T03:17:45;94070.88;;;3.76;78.60
15568;BME280;7885;42.596;23.044;2023-02-15T03:20:19;94096.97;;;3.93;78.24
15568;BME280;7885;42.596;23.044;2023-02-15T03:22:54;94089.97;;;3.92;78.51
15568;BME280;7885;42.596;23.044;2023-02-15T03:25:25;94093.78;;;3.91;78.52
15568;BME280;7885;42.596;23.044;2023-02-15T03:27:56;94095.38;;;3.92;78.55
15568;BME280;7885;42.596;23.044;2023-02-15T03:30:27;94109.50;;;3.80;79.09
15568;BME280;7885;42.596;23.044;2023-02-15T03:32:56;94104.13;;;3.80;79.60
15568;BME280;7885;42.596;23.044;2023-02-15T03:35:31;94098.59;;;3.77;79.47
15568;BME280;7885;42.596;23.044;2023-02-15T03:38:01;94106.00;;;3.80;79.68
15568;BME280;7885;42.596;23.044;2023-02-15T03:40:32;94102.38;;;3.84;79.72
15568;BME280;7885;42.596;23.044;2023-02-15T03:43:24;94075.81;;;3.66;79.75
15568;BME280;7885;42.596;23.044;2023-02-15T03:46:06;94094.28;;;3.84;79.96
15568;BME280;7885;42.596;23.044;2023-02-15T03:48:39;94093.34;;;3.80;79.94
15568;BME280;7885;42.596;23.044;2023-02-15T03:51:12;94090.63;;;3.89;79.71
15568;BME280;7885;42.596;23.044;2023-02-15T03:53:55;94075.81;;;3.74;79.88
15568;BME280;7885;42.596;23.044;2023-02-15T03:56:24;94102.97;;;3.90;79.69
15568;BME280;7885;42.596;23.044;2023-02-15T03:58:51;94095.03;;;3.93;79.66
15568;BME280;7885;42.596;23.044;2023-02-15T04:01:38;94102.50;;;3.96;79.13
15568;BME280;7885;42.596;23.044;2023-02-15T04:04:28;94095.66;;;3.99;79.03
15568;BME280;7885;42.596;23.044;2023-02-15T04:06:57;94080.50;;;3.86;79.53
15568;BME280;7885;42.596;23.044;2023-02-15T04:09:24;94060.75;;;3.73;79.14
15568;BME280;7885;42.596;23.044;2023-02-15T04:12:08;94107.81;;;4.05;78.97
15568;BME280;7885;42.596;23.044;2023-02-15T04:14:35;94109.72;;;4.04;78.81
15568;BME280;7885;42.596;23.044;2023-02-15T04:17:19;94104.84;;;3.98;79.36
15568;BME280;7885;42.596;23.044;2023-02-15T04:19:46;94102.59;;;4.00;78.76
15568;BME280;7885;42.596;23.044;2023-02-15T04:22:31;94111.44;;;4.09;78.86
15568;BME280;7885;42.596;23.044;2023-02-15T04:25:15;94120.63;;;4.08;79.11
15568;BME280;7885;42.596;23.044;2023-02-15T04:28:08;94119.97;;;4.11;78.51
15568;BME280;7885;42.596;23.044;2023-02-15T04:30:35;94104.84;;;3.98;78.62
15568;BME280;7885;42.596;23.044;2023-02-15T04:33:01;94126.16;;;4.12;78.65
15568;BME280;7885;42.596;23.044;2023-02-15T04:35:28;94133.00;;;4.09;78.85
15568;BME280;7885;42.596;23.044;2023-02-15T04:37:58;94138.53;;;4.13;78.46
15568;BME280;7885;42.596;23.044;2023-02-15T04:40:25;94140.44;;;4.12;78.43
15568;BME280;7885;42.596;23.044;2023-02-15T04:42:52;94142.19;;;4.08;78.75
15568;BME280;7885;42.596;23.044;2023-02-15T04:45:19;94146.31;;;4.05;78.79
15568;BME280;7885;42.596;23.044;2023-02-15T04:47:45;94131.63;;;3.94;79.17
15568;BME280;7885;42.596;23.044;2023-02-15T04:50:12;94148.53;;;4.03;79.24
15568;BME280;7885;42.596;23.044;2023-02-15T04:52:39;94149.66;;;4.02;79.36
15568;BME280;7885;42.596;23.044;2023-02-15T04:55:07;94147.44;;;4.04;79.09
15568;BME280;7885;42.596;23.044;2023-02-15T04:57:34;94155.66;;;4.08;78.97
15568;BME280;7885;42.596;23.044;2023-02-15T05:00:01;94156.91;;;4.11;78.84
15568;BME280;7885;42.596;23.044;2023-02-15T05:02:28;94157.25;;;4.09;78.72
15568;BME280;7885;42.596;23.044;2023-02-15T05:04:54;94159.94;;;4.09;78.80
15568;BME280;7885;42.596;23.044;2023-02-15T05:07:21;94161.03;;;4.08;78.71
15568;BME280;7885;42.596;23.044;2023-02-15T05:09:48;94148.28;;;3.96;78.77
15568;BME280;7885;42.596;23.044;2023-02-15T05:12:16;94150.16;;;3.96;79.73
15568;BME280;7885;42.596;23.044;2023-02-15T05:14:43;94154.91;;;3.99;79.54
15568;BME280;7885;42.596;23.044;2023-02-15T05:17:09;94168.31;;;4.07;79.48
15568;BME280;7885;42.596;23.044;2023-02-15T05:19:36;94156.81;;;3.98;79.60
15568;BME280;7885;42.596;23.044;2023-02-15T05:22:03;94160.59;;;4.06;79.24
15568;BME280;7885;42.596;23.044;2023-02-15T05:24:30;94150.81;;;3.93;79.57
15568;BME280;7885;42.596;23.044;2023-02-15T05:27:15;94167.59;;;3.98;79.70
15568;BME280;7885;42.596;23.044;2023-02-15T05:29:59;94152.09;;;3.87;79.77
15568;BME280;7885;42.596;23.044;2023-02-15T05:32:26;94161.84;;;4.00;79.82
15568;BME280;7885;42.596;23.044;2023-02-15T05:34:53;94170.41;;;4.02;79.76
15568;BME280;7885;42.596;23.044;2023-02-15T05:37:19;94152.56;;;3.89;79.38
15568;BME280;7885;42.596;23.044;2023-02-15T05:39:46;94179.59;;;4.01;79.74
15568;BME280;7885;42.596;23.044;2023-02-15T05:42:13;94184.53;;;3.99;80.04
15568;BME280;7885;42.596;23.044;2023-02-15T05:44:41;94172.66;;;3.91;80.63
15568;BME280;7885;42.596;23.044;2023-02-15T05:47:07;94153.84;;;3.83;80.11
15568;BME280;7885;42.596;23.044;2023-02-15T05:49:34;94180.09;;;4.03;80.29
15568;BME280;7885;42.596;23.044;2023-02-15T05:52:01;94176.47;;;3.99;79.86
15568;BME280;7885;42.596;23.044;2023-02-15T05:54:28;94188.63;;;4.05;79.88
15568;BME280;7885;42.596;23.044;2023-02-15T05:56:55;94188.78;;;4.00;80.11
15568;BME280;7885;42.596;23.044;2023-02-15T05:59:22;94187.97;;;4.08;79.86
15568;BME280;7885;42.596;23.044;2023-02-15T06:01:50;94173.13;;;3.93;80.31
15568;BME280;7885;42.596;23.044;2023-02-15T06:04:17;94175.50;;;3.95;80.04
15568;BME280;7885;42.596;23.044;2023-02-15T06:06:43;94189.09;;;4.07;80.11
15568;BME280;7885;42.596;23.044;2023-02-15T06:09:10;94181.63;;;4.13;79.75
15568;BME280;7885;42.596;23.044;2023-02-15T06:11:38;94200.16;;;4.14;79.41
15568;BME280;7885;42.596;23.044;2023-02-15T06:14:04;94184.19;;;4.09;79.48
15568;BME280;7885;42.596;23.044;2023-02-15T06:16:31;94202.03;;;4.22;79.36
15568;BME280;7885;42.596;23.044;2023-02-15T06:18:59;94199.78;;;4.24;79.51
15568;BME280;7885;42.596;23.044;2023-02-15T06:21:27;94199.78;;;4.24;78.80
15568;BME280;7885;42.596;23.044;2023-02-15T06:23:54;94192.06;;;4.14;78.88
15568;BME280;7885;42.596;23.044;2023-02-15T06:26:20;94207.88;;;4.24;79.23
15568;BME280;7885;42.596;23.044;2023-02-15T06:28:47;94169.13;;;4.08;79.13
15568;BME280;7885;42.596;23.044;2023-02-15T06:31:14;94199.19;;;4.27;78.81
15568;BME280;7885;42.596;23.044;2023-02-15T06:49:16;94159.03;;;4.64;76.12
15568;BME280;7885;42.596;23.044;2023-02-15T06:51:42;94197.59;;;4.85;76.30
15568;BME280;7885;42.596;23.044;2023-02-15T06:54:09;94139.97;;;4.39;76.41
15568;BME280;7885;42.596;23.044;2023-02-15T06:56:36;94131.19;;;4.22;76.55
15568;BME280;7885;42.596;23.044;2023-02-15T06:59:03;94201.06;;;4.65;77.17
15568;BME280;7885;42.596;23.044;2023-02-15T07:01:30;94170.69;;;4.47;77.27
15568;BME280;7885;42.596;23.044;2023-02-15T07:03:57;94199.28;;;4.69;77.18
15568;BME280;7885;42.596;23.044;2023-02-15T07:06:25;94195.97;;;4.63;77.08
15568;BME280;7885;42.596;23.044;2023-02-15T07:08:52;94206.59;;;4.68;76.89
15568;BME280;7885;42.596;23.044;2023-02-15T07:11:18;94203.75;;;4.65;77.09
15568;BME280;7885;42.596;23.044;2023-02-15T07:14:03;94201.50;;;4.67;76.97
15568;BME280;7885;42.596;23.044;2023-02-15T07:16:29;94191.06;;;4.65;76.69
15568;BME280;7885;42.596;23.044;2023-02-15T07:18:56;94201.66;;;4.70;76.23
15568;BME280;7885;42.596;23.044;2023-02-15T07:21:23;94204.09;;;4.84;76.06
15568;BME280;7885;42.596;23.044;2023-02-15T07:23:51;94168.88;;;4.59;75.93
15568;BME280;7885;42.596;23.044;2023-02-15T07:26:18;94213.13;;;4.88;75.91
15568;BME280;7885;42.596;23.044;2023-02-15T07:28:44;94218.53;;;4.88;75.82
15568;BME280;7885;42.596;23.044;2023-02-15T07:31:11;94144.81;;;4.54;75.12
15568;BME280;7885;42.596;23.044;2023-02-15T07:40:23;94202.22;;;5.05;74.81
15568;BME280;7885;42.596;23.044;2023-02-15T07:42:50;94192.75;;;4.99;74.59
15568;BME280;7885;42.596;23.044;2023-02-15T07:45:20;94204.47;;;5.03;74.25
15568;BME280;7885;42.596;23.044;2023-02-15T07:47:47;94200.91;;;5.11;74.30
15568;BME280;7885;42.596;23.044;2023-02-15T07:53:36;94203.56;;;5.20;73.82
15568;BME280;7885;42.596;23.044;2023-02-15T07:56:07;94202.09;;;5.22;73.57
15568;BME280;7885;42.596;23.044;2023-02-15T07:58:35;94183.41;;;5.17;73.14
15568;BME280;7885;42.596;23.044;2023-02-15T08:01:18;94198.03;;;5.16;73.22
15568;BME280;7885;42.596;23.044;2023-02-15T08:07:07;94195.38;;;5.28;73.17
15568;BME280;7885;42.596;23.044;2023-02-15T08:09:34;94189.31;;;5.31;72.99
15568;BME280;7885;42.596;23.044;2023-02-15T08:12:02;94194.06;;;5.34;72.63
15568;BME280;7885;42.596;23.044;2023-02-15T08:14:29;94194.19;;;5.38;72.43
15568;BME280;7885;42.596;23.044;2023-02-15T08:16:59;94195.44;;;5.40;71.96
15568;BME280;7885;42.596;23.044;2023-02-15T08:19:29;94177.97;;;5.38;71.66
15568;BME280;7885;42.596;23.044;2023-02-15T10:42:26;94174.50;;;15.44;40.11
15568;BME280;7885;42.596;23.044;2023-02-15T10:45:08;94165.28;;;17.38;36.09
15568;BME280;7885;42.596;23.044;2023-02-15T10:47:50;94169.44;;;18.92;32.88
15568;BME280;7885;42.596;23.044;2023-02-15T10:50:28;94155.97;;;18.37;31.03
15568;BME280;7885;42.596;23.044;2023-02-15T10:56:20;94162.94;;;17.40;32.87
15568;BME280;7885;42.596;23.044;2023-02-15T10:59:10;94157.31;;;16.44;33.92
15568;BME280;7885;42.596;23.044;2023-02-15T11:01:43;94167.59;;;16.26;34.77
15568;BME280;7885;42.596;23.044;2023-02-15T11:04:57;94158.59;;;16.91;33.63
15568;BME280;7885;42.596;23.044;2023-02-15T11:07:32;94154.09;;;17.59;32.81
15568;BME280;7885;42.596;23.044;2023-02-15T11:10:04;94149.00;;;19.13;30.99
15568;BME280;7885;42.596;23.044;2023-02-15T11:12:33;94143.69;;;19.92;29.68
15568;BME280;7885;42.596;23.044;2023-02-15T11:15:04;94147.81;;;19.37;28.86
15568;BME280;7885;42.596;23.044;2023-02-15T11:17:39;94151.31;;;18.64;29.89
15568;BME280;7885;42.596;23.044;2023-02-15T11:20:15;94145.19;;;17.86;31.05
15568;BME280;7885;42.596;23.044;2023-02-15T11:22:47;94142.19;;;18.37;31.13
15568;BME280;7885;42.596;23.044;2023-02-15T11:25:19;94140.72;;;19.36;29.89
15568;BME280;7885;42.596;23.044;2023-02-15T11:27:48;94127.75;;;19.99;27.46
15568;BME280;7885;42.596;23.044;2023-02-15T11:30:19;94124.38;;;20.67;27.20
15568;BME280;7885;42.596;23.044;2023-02-15T11:32:49;94129.47;;;20.33;27.70
15568;BME280;7885;42.596;23.044;2023-02-15T11:35:21;94127.84;;;20.35;27.79
15568;BME280;7885;42.596;23.044;2023-02-15T11:37:54;94127.41;;;20.37;27.11
15568;BME280;7885;42.596;23.044;2023-02-15T11:40:26;94116.47;;;19.24;27.68
15568;BME280;7885;42.596;23.044;2023-02-15T11:42:56;94115.34;;;18.41;29.30
15568;BME280;7885;42.596;23.044;2023-02-15T11:45:28;94109.38;;;18.46;29.73
15568;BME280;7885;42.596;23.044;2023-02-15T11:47:57;94123.34;;;18.32;30.65
15568;BME280;7885;42.596;23.044;2023-02-15T11:50:26;94086.53;;;17.89;30.93
15568;BME280;7885;42.596;23.044;2023-02-15T11:52:58;94108.22;;;17.46;31.71
15568;BME280;7885;42.596;23.044;2023-02-15T11:55:27;94110.69;;;17.33;32.41
15568;BME280;7885;42.596;23.044;2023-02-15T11:57:57;94101.13;;;17.45;32.21
15568;BME280;7885;42.596;23.044;2023-02-15T12:00:32;94093.47;;;17.26;32.30
15568;BME280;7885;42.596;23.044;2023-02-15T12:03:09;94105.09;;;17.03;31.79
15568;BME280;7885;42.596;23.044;2023-02-15T12:05:40;94091.06;;;16.87;32.56
15568;BME280;7885;42.596;23.044;2023-02-15T12:08:14;94081.75;;;17.18;32.72
15568;BME280;7885;42.596;23.044;2023-02-15T12:10:45;94098.13;;;17.32;33.24
15568;BME280;7885;42.596;23.044;2023-02-15T12:13:18;94091.53;;;17.63;32.54
15568;BME280;7885;42.596;23.044;2023-02-15T12:15:48;94084.59;;;17.86;31.66
15568;BME280;7885;42.596;23.044;2023-02-15T12:18:21;94075.13;;;17.87;31.81
15568;BME280;7885;42.596;23.044;2023-02-15T12:20:58;94074.94;;;18.01;31.87
15568;BME280;7885;42.596;23.044;2023-02-15T12:23:28;94071.66;;;18.13;31.07
15568;BME280;7885;42.596;23.044;2023-02-15T12:25:56;94066.97;;;18.10;31.43
15568;BME280;7885;42.596;23.044;2023-02-15T12:28:29;94065.53;;;17.98;31.28
15568;BME280;7885;42.596;23.044;2023-02-15T12:31:00;94062.34;;;18.00;31.16
15568;BME280;7885;42.596;23.044;2023-02-15T12:33:30;94066.63;;;17.74;31.11
15568;BME280;7885;42.596;23.044;2023-02-15T12:36:01;94059.88;;;17.41;31.46
15568;BME280;7885;42.596;23.044;2023-02-15T12:38:30;94059.66;;;17.25;32.28
15568;BME280;7885;42.596;23.044;2023-02-15T12:40:58;94058.34;;;17.40;31.81
15568;BME280;7885;42.596;23.044;2023-02-15T12:43:27;94051.97;;;17.47;32.08
15568;BME280;7885;42.596;23.044;2023-02-15T12:59:51;94021.44;;;18.55;30.18
15568;BME280;7885;42.596;23.044;2023-02-15T13:02:22;94033.91;;;18.63;30.38
15568;BME280;7885;42.596;23.044;2023-02-15T13:04:50;94041.78;;;18.65;30.28
15568;BME280;7885;42.596;23.044;2023-02-15T13:07:17;94032.19;;;18.46;29.71
15568;BME280;7885;42.596;23.044;2023-02-15T13:09:44;94033.91;;;18.37;30.25
15568;BME280;7885;42.596;23.044;2023-02-15T13:12:18;94019.41;;;18.33;30.97
15568;BME280;7885;42.596;23.044;2023-02-15T13:14:48;94030.59;;;18.22;30.72
15568;BME280;7885;42.596;23.044;2023-02-15T13:17:21;94016.78;;;17.95;30.54
15568;BME280;7885;42.596;23.044;2023-02-15T13:19:56;94030.28;;;17.86;31.20
15568;BME280;7885;42.596;23.044;2023-02-15T13:22:27;94036.75;;;17.73;30.95
15568;BME280;7885;42.596;23.044;2023-02-15T13:24:57;94040.44;;;17.59;31.34
15568;BME280;7885;42.596;23.044;2023-02-15T13:27:29;94038.72;;;17.35;31.89
15568;BME280;7885;42.596;23.044;2023-02-15T13:30:01;94033.81;;;17.19;32.35
15568;BME280;7885;42.596;23.044;2023-02-15T13:32:33;94042.47;;;17.14;32.60
15568;BME280;7885;42.596;23.044;2023-02-15T13:35:04;94032.97;;;16.85;33.26
15568;BME280;7885;42.596;23.044;2023-02-15T13:37:55;94038.72;;;16.49;33.64
15568;BME280;7885;42.596;23.044;2023-02-15T13:40:31;94033.50;;;16.07;34.14
15568;BME280;7885;42.596;23.044;2023-02-15T13:43:05;94034.75;;;15.99;34.66
15568;BME280;7885;42.596;23.044;2023-02-15T13:45:43;94035.94;;;15.94;34.98
15568;BME280;7885;42.596;23.044;2023-02-15T13:48:24;94040.28;;;15.88;35.23
15568;BME280;7885;42.596;23.044;2023-02-15T13:51:07;94041.13;;;15.82;35.14
15568;BME280;7885;42.596;23.044;2023-02-15T13:53:49;94041.91;;;15.82;34.85
15568;BME280;7885;42.596;23.044;2023-02-15T13:56:27;94041.53;;;15.77;35.36
15568;BME280;7885;42.596;23.044;2023-02-15T13:59:04;94039.22;;;15.68;35.73
15568;BME280;7885;42.596;23.044;2023-02-15T14:01:39;94001.66;;;15.47;35.47
15568;BME280;7885;42.596;23.044;2023-02-15T14:04:33;94057.25;;;15.65;35.76
15568;BME280;7885;42.596;23.044;2023-02-15T14:07:15;94051.84;;;15.51;35.87
15568;BME280;7885;42.596;23.044;2023-02-15T14:09:51;94051.84;;;15.44;36.20
15568;BME280;7885;42.596;23.044;2023-02-15T14:12:42;94049.94;;;15.20;36.39
15568;BME280;7885;42.596;23.044;2023-02-15T14:15:21;94055.06;;;15.00;36.66
15568;BME280;7885;42.596;23.044;2023-02-15T14:18:00;94046.50;;;14.74;37.65
15568;BME280;7885;42.596;23.044;2023-02-15T14:20:40;94055.88;;;14.58;37.84
15568;BME280;7885;42.596;23.044;2023-02-15T14:23:17;94055.50;;;14.53;37.65
15568;BME280;7885;42.596;23.044;2023-02-15T14:25:56;94062.94;;;14.45;38.13
15568;BME280;7885;42.596;23.044;2023-02-15T14:28:29;94064.50;;;14.39;38.45
15568;BME280;7885;42.596;23.044;2023-02-15T14:30:59;94073.44;;;14.22;38.89
15568;BME280;7885;42.596;23.044;2023-02-15T14:33:32;94075.38;;;14.11;39.13
15568;BME280;7885;42.596;23.044;2023-02-15T14:36:01;94022.13;;;13.77;39.66
15568;BME280;7885;42.596;23.044;2023-02-15T14:38:43;94057.72;;;13.91;39.75
15568;BME280;7885;42.596;23.044;2023-02-15T14:41:14;94044.81;;;13.81;39.96
15568;BME280;7885;42.596;23.044;2023-02-15T14:43:50;94043.97;;;13.66;40.03
15568;BME280;7885;42.596;23.044;2023-02-15T14:46:29;94062.75;;;13.68;40.96
15568;BME280;7885;42.596;23.044;2023-02-15T14:48:58;94057.25;;;13.60;41.14
15568;BME280;7885;42.596;23.044;2023-02-15T14:52:00;94060.25;;;13.34;41.49
15568;BME280;7885;42.596;23.044;2023-02-15T14:54:55;94059.78;;;13.14;42.31
15568;BME280;7885;42.596;23.044;2023-02-15T14:57:34;94056.94;;;13.04;42.70
15568;BME280;7885;42.596;23.044;2023-02-15T15:02:49;94053.34;;;12.86;43.18
15568;BME280;7885;42.596;23.044;2023-02-15T15:05:22;94058.72;;;12.75;43.60
15568;BME280;7885;42.596;23.044;2023-02-15T15:07:54;94014.34;;;12.34;44.05
15568;BME280;7885;42.596;23.044;2023-02-15T15:10:45;94051.34;;;12.28;45.08
15568;BME280;7885;42.596;23.044;2023-02-15T15:13:35;94068.06;;;12.23;45.29
15568;BME280;7885;42.596;23.044;2023-02-15T15:16:25;94079.19;;;12.04;45.58
15568;BME280;7885;42.596;23.044;2023-02-15T15:18:55;94065.22;;;11.72;46.55
15568;BME280;7885;42.596;23.044;2023-02-15T15:21:51;94072.03;;;11.59;47.01
15568;BME280;7885;42.596;23.044;2023-02-15T15:24:48;94062.78;;;11.04;48.16
15568;BME280;7885;42.596;23.044;2023-02-15T15:27:36;94071.41;;;10.80;49.18
15568;BME280;7885;42.596;23.044;2023-02-15T15:30:48;94079.16;;;10.51;50.17
15568;BME280;7885;42.596;23.044;2023-02-15T15:33:43;94081.44;;;10.23;51.28
15568;BME280;7885;42.596;23.044;2023-02-15T15:36:34;94084.16;;;10.04;52.11
15568;BME280;7885;42.596;23.044;2023-02-15T15:39:20;94084.81;;;9.75;52.51
15568;BME280;7885;42.596;23.044;2023-02-15T15:42:00;94082.03;;;9.52;53.48
15568;BME280;7885;42.596;23.044;2023-02-15T15:45:00;94094.13;;;9.35;54.42
15568;BME280;7885;42.596;23.044;2023-02-15T15:47:39;94090.00;;;9.22;54.75
15568;BME280;7885;42.596;23.044;2023-02-15T15:50:14;94099.91;;;9.14;55.43
15568;BME280;7885;42.596;23.044;2023-02-15T15:52:46;94090.66;;;9.00;55.48
15568;BME280;7885;42.596;23.044;2023-02-15T15:55:15;94082.66;;;8.88;55.97
15568;BME280;7885;42.596;23.044;2023-02-15T15:57:47;94097.53;;;8.94;56.06
15568;BME280;7885;42.596;23.044;2023-02-15T16:00:27;94099.81;;;8.92;55.60
15568;BME280;7885;42.596;23.044;2023-02-15T16:02:57;94098.78;;;8.81;55.98
15568;BME280;7885;42.596;23.044;2023-02-15T16:05:23;94106.34;;;8.72;55.89
15568;BME280;7885;42.596;23.044;2023-02-15T16:07:50;94101.13;;;8.47;56.30
15568;BME280;7885;42.596;23.044;2023-02-15T16:10:22;94110.53;;;8.34;57.00
15568;BME280;7885;42.596;23.044;2023-02-15T16:12:51;94108.28;;;8.24;57.35
15568;BME280;7885;42.596;23.044;2023-02-15T16:15:20;94090.88;;;7.94;58.27
15568;BME280;7885;42.596;23.044;2023-02-15T16:17:52;94120.53;;;8.02;58.70
15568;BME280;7885;42.596;23.044;2023-02-15T16:20:27;94127.69;;;7.95;59.21
15568;BME280;7885;42.596;23.044;2023-02-15T16:23:12;94127.25;;;7.93;58.81
15568;BME280;7885;42.596;23.044;2023-02-15T16:25:48;94126.81;;;7.91;59.50
15568;BME280;7885;42.596;23.044;2023-02-15T16:28:19;94119.97;;;7.81;59.44
15568;BME280;7885;42.596;23.044;2023-02-15T16:30:58;94119.88;;;7.78;59.36
15568;BME280;7885;42.596;23.044;2023-02-15T16:33:35;94118.13;;;7.70;59.51
15568;BME280;7885;42.596;23.044;2023-02-15T16:36:03;94096.94;;;7.59;59.78
15568;BME280;7885;42.596;23.044;2023-02-15T16:39:05;94098.84;;;7.43;59.84
15568;BME280;7885;42.596;23.044;2023-02-15T16:41:33;94088.44;;;7.18;60.64
15568;BME280;7885;42.596;23.044;2023-02-15T16:44:06;94087.81;;;7.08;60.55
15568;BME280;7885;42.596;23.044;2023-02-15T16:46:36;94141.19;;;7.36;60.81
15568;BME280;7885;42.596;23.044;2023-02-15T16:49:12;94115.13;;;7.31;60.70